createdAt,value
2023-05-18T00:01:03.696Z,10.60
2023-05-18T00:03:33.833Z,10.60
2023-05-18T00:06:04.756Z,10.40
2023-05-18T00:08:33.471Z,10.40
2023-05-18T00:11:04.391Z,10.40
2023-05-18T00:13:33.690Z,10.40
2023-05-18T00:16:02.433Z,10.30
2023-05-18T00:18:31.139Z,10.40
2023-05-18T00:20:59.961Z,10.40
2023-05-18T00:23:31.200Z,10.40
2023-05-18T00:26:00.572Z,10.30
2023-05-18T00:28:31.225Z,10.20
2023-05-18T00:31:00.538Z,10.20
2023-05-18T00:33:29.298Z,10.20
2023-05-18T00:35:59.332Z,10.20
2023-05-18T00:38:27.984Z,10.00
2023-05-18T00:40:56.690Z,10.00
2023-05-18T00:43:26.089Z,9.90
2023-05-18T00:45:56.286Z,9.90
2023-05-18T00:48:25.080Z,9.90
2023-05-18T00:50:53.857Z,9.90
2023-05-18T00:53:22.922Z,9.80
2023-05-18T00:55:53.546Z,9.90
2023-05-18T00:58:23.851Z,9.90
2023-05-18T01:00:53.347Z,9.80
2023-05-18T01:03:24.501Z,9.60
2023-05-18T01:05:55.784Z,9.50
2023-05-18T01:08:25.143Z,9.70
2023-05-18T01:11:03.902Z,9.70
2023-05-18T01:13:49.267Z,9.70
2023-05-18T01:16:27.328Z,9.70
2023-05-18T01:19:07.780Z,9.50
2023-05-18T01:21:57.690Z,9.40
2023-05-18T01:24:37.219Z,9.40
2023-05-18T01:27:09.811Z,9.50
2023-05-18T01:29:39.917Z,9.50
2023-05-18T01:32:10.304Z,9.50
2023-05-18T01:34:39.075Z,9.50
2023-05-18T01:37:07.745Z,9.50
2023-05-18T01:39:36.661Z,9.40
2023-05-18T01:42:16.464Z,9.30
2023-05-18T01:44:51.874Z,9.20
2023-05-18T01:47:21.810Z,9.10
2023-05-18T01:49:59.722Z,9.00
2023-05-18T01:52:37.371Z,9.00
2023-05-18T01:55:09.025Z,8.90
2023-05-18T01:57:44.139Z,9.00
2023-05-18T02:00:16.750Z,8.80
2023-05-18T02:02:45.789Z,8.90
2023-05-18T02:05:17.721Z,8.90
2023-05-18T02:07:47.569Z,8.90
2023-05-18T02:10:17.176Z,8.90
2023-05-18T02:12:49.256Z,9.00
2023-05-18T02:15:18.196Z,8.80
2023-05-18T02:17:47.450Z,8.80
2023-05-18T02:20:18.452Z,8.80
2023-05-18T02:22:47.251Z,8.80
2023-05-18T02:25:17.120Z,8.80
2023-05-18T02:27:47.536Z,8.70
2023-05-18T02:30:17.239Z,8.70
2023-05-18T02:32:47.147Z,8.70
2023-05-18T02:35:17.439Z,8.60
2023-05-18T02:37:47.387Z,8.60
2023-05-18T02:40:17.148Z,8.50
2023-05-18T02:42:47.349Z,8.50
2023-05-18T02:45:16.197Z,8.60
2023-05-18T02:47:46.705Z,8.60
2023-05-18T02:50:15.616Z,8.50
2023-05-18T02:52:49.226Z,8.50
2023-05-18T02:55:19.088Z,8.50
2023-05-18T02:58:05.005Z,8.50
2023-05-18T03:01:03.628Z,8.20
2023-05-18T03:03:42.290Z,7.90
2023-05-18T03:06:11.710Z,8.10
2023-05-18T03:08:41.192Z,8.20
2023-05-18T03:11:11.994Z,8.10
2023-05-18T03:13:43.586Z,8.10
2023-05-18T03:16:13.416Z,7.90
2023-05-18T03:18:42.319Z,7.90
2023-05-18T03:21:14.000Z,7.80
2023-05-18T03:23:42.754Z,7.90
2023-05-18T03:26:12.484Z,8.00
2023-05-18T03:28:42.671Z,7.90
2023-05-18T03:31:11.490Z,7.90
2023-05-18T03:33:40.336Z,7.90
2023-05-18T03:36:09.852Z,7.60
2023-05-18T03:38:38.577Z,7.70
2023-05-18T03:41:11.716Z,7.50
2023-05-18T03:43:42.086Z,7.50
2023-05-18T03:46:10.839Z,7.70
2023-05-18T03:48:39.555Z,7.60
2023-05-18T03:51:08.537Z,7.70
2023-05-18T03:53:37.403Z,7.70
2023-05-18T03:56:07.819Z,7.70
2023-05-18T03:58:38.429Z,7.70
2023-05-18T04:01:19.682Z,7.70
2023-05-18T04:03:49.150Z,7.60
2023-05-18T04:06:18.099Z,7.60
2023-05-18T04:08:46.990Z,7.60
2023-05-18T04:11:15.869Z,7.60
2023-05-18T04:13:45.235Z,7.60
2023-05-18T04:16:14.440Z,7.60
2023-05-18T04:18:44.700Z,7.60
2023-05-18T04:21:13.385Z,7.60
2023-05-18T04:23:42.049Z,7.50
2023-05-18T04:26:11.132Z,7.50
2023-05-18T04:28:39.821Z,7.50
2023-05-18T04:31:08.531Z,7.20
2023-05-18T04:33:38.591Z,7.30
2023-05-18T04:36:10.511Z,7.50
2023-05-18T04:38:39.750Z,7.60
2023-05-18T04:41:09.169Z,7.50
2023-05-18T04:43:38.030Z,7.60
2023-05-18T04:46:08.030Z,7.60
2023-05-18T04:48:37.674Z,7.60
2023-05-18T04:51:09.115Z,7.40
2023-05-18T04:53:40.046Z,7.60
2023-05-18T04:56:09.497Z,7.40
2023-05-18T04:58:38.750Z,7.30
2023-05-18T05:01:08.079Z,7.40
2023-05-18T05:03:37.366Z,7.50
2023-05-18T05:06:08.482Z,7.50
2023-05-18T05:08:39.581Z,7.70
2023-05-18T05:11:08.777Z,7.80
2023-05-18T05:13:37.701Z,7.70
2023-05-18T05:16:09.187Z,7.80
2023-05-18T05:18:38.633Z,7.70
2023-05-18T05:21:11.492Z,7.80
2023-05-18T05:23:41.471Z,7.80
2023-05-18T05:26:12.522Z,7.90
2023-05-18T05:28:41.966Z,7.90
2023-05-18T05:31:11.199Z,7.90
2023-05-18T05:33:40.521Z,8.00
2023-05-18T05:36:11.945Z,8.00
2023-05-18T05:38:43.564Z,8.00
2023-05-18T05:41:13.814Z,8.10
2023-05-18T05:43:43.631Z,8.10
2023-05-18T05:46:12.819Z,8.20
2023-05-18T05:48:41.768Z,8.30
2023-05-18T05:51:14.000Z,8.30
2023-05-18T05:53:43.631Z,8.30
2023-05-18T05:56:12.950Z,8.40
2023-05-18T05:58:44.445Z,8.40
2023-05-18T06:01:13.550Z,8.50
2023-05-18T06:03:43.089Z,8.50
2023-05-18T06:06:15.215Z,8.60
2023-05-18T06:08:46.663Z,8.60
2023-05-18T06:11:19.511Z,8.70
2023-05-18T06:13:48.583Z,8.80
2023-05-18T06:16:17.564Z,8.80
2023-05-18T06:18:51.599Z,8.80
2023-05-18T06:21:22.598Z,8.90
2023-05-18T06:23:52.337Z,8.90
2023-05-18T06:27:35.228Z,9.00
2023-05-18T06:30:49.256Z,9.10
2023-05-18T06:33:24.552Z,9.20
2023-05-18T06:35:53.715Z,9.20
2023-05-18T06:38:41.878Z,9.30
2023-05-18T06:41:13.194Z,9.30
2023-05-18T06:43:44.874Z,9.40
2023-05-18T06:46:42.620Z,9.40
2023-05-18T06:49:19.813Z,9.40
2023-05-18T06:51:48.672Z,9.50
2023-05-18T06:54:22.174Z,9.60
2023-05-18T06:56:52.510Z,9.60
2023-05-18T06:59:23.909Z,9.70
2023-05-18T07:01:53.057Z,9.80
2023-05-18T07:04:22.906Z,9.90
2023-05-18T07:06:52.064Z,10.00
2023-05-18T07:09:23.022Z,10.00
2023-05-18T07:11:51.852Z,10.10
2023-05-18T07:14:31.431Z,10.10
2023-05-18T07:17:00.467Z,10.20
2023-05-18T07:19:29.832Z,10.20
2023-05-18T07:21:59.478Z,10.30
2023-05-18T07:24:37.930Z,10.40
2023-05-18T07:27:07.088Z,10.40
2023-05-18T07:29:36.952Z,10.40
2023-05-18T07:32:15.181Z,10.40
2023-05-18T07:35:14.261Z,10.50
2023-05-18T07:37:55.159Z,10.50
2023-05-18T07:40:53.014Z,10.50
2023-05-18T07:43:21.757Z,10.70
2023-05-18T07:45:52.827Z,10.70
2023-05-18T07:48:22.094Z,10.80
2023-05-18T07:50:50.953Z,10.90
2023-05-18T07:53:19.879Z,10.90
2023-05-18T07:55:52.997Z,10.80
2023-05-18T07:58:22.865Z,10.80
2023-05-18T08:00:52.637Z,10.90
2023-05-18T08:03:21.887Z,11.00
2023-05-18T08:05:50.762Z,11.00
2023-05-18T08:08:20.915Z,11.00
2023-05-18T08:11:08.520Z,11.10
2023-05-18T08:14:07.605Z,11.10
2023-05-18T08:16:38.525Z,11.20
2023-05-18T08:19:07.534Z,11.40
2023-05-18T08:21:36.977Z,11.60
2023-05-18T08:24:07.944Z,11.70
2023-05-18T08:26:38.339Z,11.80
2023-05-18T08:29:10.224Z,11.70
2023-05-18T08:31:40.275Z,11.80
2023-05-18T08:34:17.394Z,11.80
2023-05-18T08:36:48.006Z,11.60
2023-05-18T08:39:16.706Z,11.60
2023-05-18T08:41:57.262Z,11.60
2023-05-18T08:44:40.652Z,11.70
2023-05-18T08:47:11.815Z,11.80
2023-05-18T08:49:44.341Z,11.90
2023-05-18T08:52:28.121Z,11.90
2023-05-18T08:55:01.007Z,12.10
2023-05-18T08:57:36.780Z,12.20
2023-05-18T09:00:08.036Z,12.30
2023-05-18T09:02:39.845Z,12.30
2023-05-18T09:05:15.152Z,12.40
2023-05-18T09:07:45.346Z,12.40
2023-05-18T09:10:16.483Z,12.50
2023-05-18T09:12:48.517Z,12.60
2023-05-18T09:15:19.382Z,12.60
2023-05-18T09:17:48.306Z,12.80
2023-05-18T09:20:18.633Z,12.90
2023-05-18T09:22:51.559Z,12.90
2023-05-18T09:25:31.837Z,12.90
2023-05-18T09:28:29.309Z,13.00
2023-05-18T09:31:04.057Z,12.90
2023-05-18T09:33:52.201Z,13.00
2023-05-18T09:36:38.462Z,13.10
2023-05-18T09:39:15.505Z,13.10
2023-05-18T09:42:06.703Z,13.10
2023-05-18T09:49:25.720Z,13.30
2023-05-18T09:51:54.776Z,13.40
2023-05-18T09:54:24.535Z,13.30
2023-05-18T09:57:09.055Z,13.30
2023-05-18T09:59:40.318Z,13.50
2023-05-18T10:02:25.337Z,13.30
2023-05-18T10:05:04.086Z,13.40
2023-05-18T10:07:48.953Z,13.50
2023-05-18T10:10:31.981Z,13.60
2023-05-18T10:13:19.853Z,13.70
2023-05-18T10:16:20.439Z,13.80
2023-05-18T10:18:55.413Z,13.70
2023-05-18T10:21:38.459Z,13.80
2023-05-18T10:24:13.952Z,13.80
2023-05-18T10:26:46.565Z,13.80
2023-05-18T10:29:17.245Z,13.90
2023-05-18T10:31:51.653Z,13.90
2023-05-18T10:34:24.860Z,14.00
2023-05-18T10:36:56.190Z,14.00
2023-05-18T10:39:56.059Z,14.10
2023-05-18T10:42:27.264Z,14.10
2023-05-18T10:45:01.393Z,14.40
2023-05-18T10:47:30.979Z,14.50
2023-05-18T10:50:02.722Z,14.80
2023-05-18T10:52:34.965Z,15.10
2023-05-18T10:55:04.816Z,15.10
2023-05-18T10:57:40.762Z,15.30
2023-05-18T11:00:38.289Z,15.40
2023-05-18T11:03:14.490Z,15.40
2023-05-18T11:05:44.026Z,15.40
2023-05-18T11:08:28.362Z,15.50
2023-05-18T11:11:07.764Z,15.60
2023-05-18T11:13:45.724Z,15.60
2023-05-18T11:16:16.064Z,15.40
2023-05-18T11:18:49.506Z,15.30
2023-05-18T11:21:51.710Z,15.20
2023-05-18T11:24:25.676Z,15.40
2023-05-18T11:26:56.863Z,15.40
2023-05-18T11:29:32.918Z,15.60
2023-05-18T11:32:02.637Z,15.70
2023-05-18T11:34:47.773Z,15.60
2023-05-18T11:37:18.188Z,15.60
2023-05-18T11:40:47.238Z,15.60
2023-05-18T11:43:23.812Z,15.50
2023-05-18T11:46:19.817Z,15.60
2023-05-18T11:48:48.703Z,15.80
2023-05-18T11:51:18.133Z,15.80
2023-05-18T11:53:46.947Z,15.60
2023-05-18T11:56:21.579Z,15.80
2023-05-18T11:59:39.713Z,15.90
2023-05-18T12:02:11.765Z,16.10
2023-05-18T12:04:55.441Z,16.20
2023-05-18T12:07:26.251Z,16.10
2023-05-18T12:09:59.580Z,16.10
2023-05-18T12:12:33.291Z,16.20
2023-05-18T12:15:06.092Z,16.30
2023-05-18T12:17:44.467Z,16.40
2023-05-18T12:20:15.860Z,16.10
2023-05-18T12:22:50.209Z,16.10
2023-05-18T12:25:19.904Z,15.90
2023-05-18T12:27:51.811Z,16.00
2023-05-18T12:30:23.734Z,16.20
2023-05-18T12:32:55.013Z,16.30
2023-05-18T12:35:25.977Z,16.40
2023-05-18T12:37:56.145Z,16.50
2023-05-18T12:40:25.358Z,16.70
2023-05-18T12:42:58.276Z,16.70
2023-05-18T12:45:29.738Z,16.80
2023-05-18T12:48:06.249Z,16.80
2023-05-18T12:50:37.356Z,16.80
2023-05-18T12:53:06.376Z,16.80
2023-05-18T12:55:35.860Z,16.80
2023-05-18T12:58:14.657Z,16.90
2023-05-18T13:00:46.608Z,16.70
2023-05-18T13:03:17.710Z,16.80
2023-05-18T13:06:02.754Z,16.90
2023-05-18T13:08:34.127Z,17.00
2023-05-18T13:11:13.527Z,17.00
2023-05-18T13:14:06.633Z,17.00
2023-05-18T13:16:39.765Z,17.10
2023-05-18T13:19:11.427Z,17.10
2023-05-18T13:21:41.079Z,17.10
2023-05-18T13:24:10.300Z,17.40
2023-05-18T13:27:04.610Z,17.60
2023-05-18T13:29:38.314Z,18.00
2023-05-18T13:32:31.507Z,18.70
2023-05-18T13:36:17.072Z,19.40
2023-05-18T13:38:47.113Z,19.60
2023-05-18T13:41:33.284Z,19.70
2023-05-18T13:44:10.456Z,19.10
2023-05-18T13:46:40.924Z,18.70
2023-05-18T13:49:10.123Z,19.00
2023-05-18T13:51:54.455Z,18.70
2023-05-18T13:54:27.228Z,19.00
2023-05-18T13:57:02.465Z,19.00
2023-05-18T14:00:04.216Z,18.70
2023-05-18T14:03:01.408Z,18.50
2023-05-18T14:05:56.802Z,18.50
2023-05-18T14:08:25.846Z,18.40
2023-05-18T14:10:54.765Z,18.40
2023-05-18T14:13:33.826Z,18.30
2023-05-18T14:16:02.731Z,18.30
2023-05-18T14:18:33.348Z,18.20
2023-05-18T14:21:08.323Z,18.20
2023-05-18T14:23:42.576Z,18.20
2023-05-18T14:26:11.548Z,18.80
2023-05-18T14:28:40.350Z,19.30
2023-05-18T14:31:49.378Z,19.30
2023-05-18T14:34:19.761Z,19.50
2023-05-18T14:36:49.268Z,19.70
2023-05-18T14:39:18.374Z,19.50
2023-05-18T14:41:59.094Z,19.10
2023-05-18T14:44:28.248Z,18.90
2023-05-18T14:47:00.531Z,18.80
2023-05-18T14:49:31.120Z,18.80
2023-05-18T14:52:04.450Z,18.70
2023-05-18T14:54:38.807Z,18.70
2023-05-18T14:57:08.065Z,18.70
2023-05-18T14:59:40.033Z,18.50
2023-05-18T15:02:09.293Z,18.60
2023-05-18T15:04:40.075Z,18.60
2023-05-18T15:07:09.373Z,18.50
2023-05-18T15:09:38.502Z,18.50
2023-05-18T15:12:08.291Z,18.50
2023-05-18T15:14:38.194Z,18.70
2023-05-18T15:17:08.880Z,18.80
2023-05-18T15:19:41.216Z,19.00
2023-05-18T15:22:10.590Z,18.80
2023-05-18T15:24:39.704Z,18.80
2023-05-18T15:27:09.226Z,18.70
2023-05-18T15:29:39.893Z,18.70
2023-05-18T15:32:09.659Z,18.70
2023-05-18T15:34:43.907Z,18.50
2023-05-18T15:37:12.965Z,18.50
2023-05-18T15:39:42.208Z,18.60
2023-05-18T15:42:11.229Z,18.60
2023-05-18T15:44:40.313Z,18.30
2023-05-18T15:47:09.878Z,18.30
2023-05-18T15:49:38.758Z,18.30
2023-05-18T15:52:10.277Z,18.50
2023-05-18T15:54:39.424Z,18.50
2023-05-18T15:57:08.968Z,18.50
2023-05-18T15:59:37.880Z,18.40
2023-05-18T16:02:07.160Z,18.40
2023-05-18T16:04:36.477Z,18.50
2023-05-18T16:07:05.810Z,18.50
2023-05-18T16:09:36.566Z,18.50
2023-05-18T16:12:06.461Z,18.40
2023-05-18T16:14:35.774Z,18.30
2023-05-18T16:17:04.784Z,18.40
2023-05-18T16:19:34.071Z,18.40
2023-05-18T16:22:02.973Z,18.20
2023-05-18T16:24:31.852Z,18.00
2023-05-18T16:27:14.533Z,18.10
2023-05-18T16:29:55.855Z,17.90
2023-05-18T16:32:29.446Z,17.90
2023-05-18T16:35:02.594Z,17.70
2023-05-18T16:37:37.688Z,17.80
2023-05-18T16:40:09.999Z,17.60
2023-05-18T16:42:47.204Z,17.50
2023-05-18T16:45:16.406Z,17.60
2023-05-18T16:47:45.551Z,17.50
2023-05-18T16:50:19.349Z,17.40
2023-05-18T16:52:49.741Z,17.40
2023-05-18T16:55:21.835Z,17.20
2023-05-18T16:57:53.289Z,17.40
2023-05-18T17:00:24.358Z,17.50
2023-05-18T17:03:13.437Z,17.60
2023-05-18T17:06:08.935Z,17.50
2023-05-18T17:08:38.321Z,17.50
2023-05-18T17:11:07.457Z,17.50
2023-05-18T17:13:37.787Z,17.50
2023-05-18T17:16:08.016Z,17.40
2023-05-18T17:18:40.169Z,17.50
2023-05-18T17:21:09.067Z,17.40
2023-05-18T17:23:38.052Z,17.40
2023-05-18T17:26:09.060Z,17.30
2023-05-18T17:28:39.494Z,17.40
2023-05-18T17:31:08.751Z,17.30
2023-05-18T17:33:37.490Z,17.20
2023-05-18T17:36:07.178Z,17.10
2023-05-18T17:39:06.812Z,17.00
2023-05-18T17:42:58.858Z,16.90
2023-05-18T17:45:29.558Z,16.80
2023-05-18T17:47:58.848Z,16.80
2023-05-18T17:50:28.736Z,16.70
2023-05-18T17:52:57.526Z,16.80
2023-05-18T17:59:28.003Z,16.60
2023-05-18T18:01:58.483Z,16.50
2023-05-18T18:04:27.464Z,16.60
2023-05-18T18:07:01.841Z,16.50
2023-05-18T18:09:32.978Z,16.50
2023-05-18T18:12:07.589Z,16.50
2023-05-18T18:14:36.852Z,16.60
2023-05-18T18:17:07.633Z,16.60
2023-05-18T18:23:07.789Z,16.50
2023-05-18T18:25:56.631Z,16.40
2023-05-18T18:28:54.717Z,16.50
2023-05-18T18:31:48.829Z,16.40
2023-05-18T18:34:40.174Z,16.50
2023-05-18T18:37:10.251Z,16.40
2023-05-18T18:39:39.844Z,16.40
2023-05-18T18:42:09.701Z,16.40
2023-05-18T18:47:39.358Z,16.50
2023-05-18T18:50:11.600Z,16.40
2023-05-18T18:52:40.695Z,16.30
2023-05-18T18:55:09.885Z,16.10
2023-05-18T18:57:39.321Z,16.20
2023-05-18T19:00:11.514Z,16.20
2023-05-18T19:02:44.568Z,16.20
2023-05-18T19:05:24.690Z,16.20
2023-05-18T19:07:56.021Z,16.20
2023-05-18T19:10:26.906Z,16.10
2023-05-18T19:13:05.333Z,16.10
2023-05-18T19:15:38.413Z,16.10
2023-05-18T19:18:09.320Z,16.00
2023-05-18T19:20:39.823Z,16.00
2023-05-18T19:23:14.920Z,16.00
2023-05-18T19:25:43.975Z,15.80
2023-05-18T19:28:13.261Z,15.70
2023-05-18T19:30:42.202Z,15.70
2023-05-18T19:33:16.844Z,15.60
2023-05-18T19:35:55.973Z,15.60
2023-05-18T19:38:27.928Z,15.60
2023-05-18T19:40:58.765Z,15.50
2023-05-18T19:44:49.546Z,15.40
2023-05-18T19:47:18.445Z,15.40
2023-05-18T19:49:48.096Z,15.40
2023-05-18T19:52:20.021Z,15.30
2023-05-18T19:54:49.031Z,15.30
2023-05-18T19:57:19.822Z,15.30
2023-05-18T19:59:48.919Z,15.20
2023-05-18T20:02:17.726Z,15.20
2023-05-18T20:04:47.428Z,15.20
2023-05-18T20:07:34.701Z,15.20
2023-05-18T20:10:03.464Z,15.10
2023-05-18T20:12:33.097Z,15.00
2023-05-18T20:15:02.032Z,15.00
2023-05-18T20:17:30.815Z,14.90
2023-05-18T20:20:00.219Z,14.80
2023-05-18T20:22:29.206Z,14.90
2023-05-18T20:25:01.309Z,14.90
2023-05-18T20:27:30.219Z,14.80
2023-05-18T20:34:49.198Z,14.70
2023-05-18T20:37:19.628Z,14.70
2023-05-18T20:40:13.456Z,14.60
2023-05-18T20:42:42.702Z,14.60
2023-05-18T20:45:12.539Z,14.60
2023-05-18T20:47:42.005Z,14.50
2023-05-18T20:50:12.080Z,14.50
2023-05-18T20:52:41.090Z,14.50
2023-05-18T20:55:13.818Z,14.50
2023-05-18T20:57:44.853Z,14.40
2023-05-18T21:00:15.234Z,14.50
2023-05-18T21:02:45.714Z,14.40
2023-05-18T21:06:06.786Z,14.40
2023-05-18T21:08:35.669Z,14.30
2023-05-18T21:11:06.229Z,14.30
2023-05-18T21:13:36.995Z,14.30
2023-05-18T21:16:08.636Z,14.30
2023-05-18T21:18:37.981Z,14.20
2023-05-18T21:21:06.905Z,14.20
2023-05-18T21:24:02.302Z,14.20
2023-05-18T21:26:32.776Z,14.20
2023-05-18T21:29:02.502Z,14.20
2023-05-18T21:31:31.387Z,14.10
2023-05-18T21:34:00.292Z,14.10
2023-05-18T21:36:34.184Z,14.10
2023-05-18T21:39:05.251Z,14.00
2023-05-18T21:41:47.832Z,14.00
2023-05-18T21:44:16.630Z,14.00
2023-05-18T21:46:45.922Z,14.00
2023-05-18T21:49:21.794Z,14.00
2023-05-18T21:51:51.138Z,13.80
2023-05-18T21:54:20.033Z,13.80
2023-05-18T21:56:50.383Z,13.80
2023-05-18T21:59:19.273Z,13.80
2023-05-18T22:01:48.189Z,13.90
2023-05-18T22:04:17.224Z,13.80
2023-05-18T22:06:46.194Z,13.80
2023-05-18T22:09:14.996Z,13.70
2023-05-18T22:11:43.855Z,13.70
2023-05-18T22:14:16.294Z,13.60
2023-05-18T22:16:46.789Z,13.60
2023-05-18T22:19:15.711Z,13.60
2023-05-18T22:21:44.654Z,13.60
2023-05-18T22:24:13.431Z,13.60
2023-05-18T22:26:44.075Z,13.60
2023-05-18T22:29:14.392Z,13.60
2023-05-18T22:31:43.368Z,13.60
2023-05-18T22:34:12.165Z,13.60
2023-05-18T22:36:41.233Z,13.50
2023-05-18T22:39:11.187Z,13.50
2023-05-18T22:41:40.058Z,13.50
2023-05-18T22:44:08.806Z,13.50
2023-05-18T22:46:39.644Z,13.60
2023-05-18T22:49:08.559Z,13.60
2023-05-18T22:51:37.371Z,13.50
2023-05-18T22:54:06.274Z,13.40
2023-05-18T22:56:35.574Z,13.40
2023-05-18T22:59:04.369Z,13.30
2023-05-18T23:01:33.155Z,13.40
2023-05-18T23:04:03.349Z,13.40
2023-05-18T23:06:32.946Z,13.40
2023-05-18T23:09:01.814Z,13.40
2023-05-18T23:11:31.102Z,13.30
2023-05-18T23:14:02.712Z,13.30
2023-05-18T23:16:31.778Z,13.30
2023-05-18T23:19:01.832Z,13.30
2023-05-18T23:21:32.996Z,13.30
2023-05-18T23:24:01.886Z,13.20
2023-05-18T23:26:30.739Z,13.20
2023-05-18T23:28:59.586Z,13.10
2023-05-18T23:31:28.430Z,13.10
2023-05-18T23:33:57.995Z,13.10
2023-05-18T23:36:30.559Z,13.10
2023-05-18T23:39:01.756Z,13.00
2023-05-18T23:41:32.410Z,13.10
2023-05-18T23:44:01.921Z,13.10
2023-05-18T23:46:32.602Z,13.10
2023-05-18T23:49:02.173Z,13.10
2023-05-18T23:51:35.940Z,13.10
2023-05-18T23:54:09.525Z,13.00
2023-05-18T23:56:39.390Z,13.10
2023-05-18T23:59:08.933Z,13.10
